Wednesday, December 13, 2017 (12:52 UTC)
OPMET DATA  
Terminal Aerodrome Forecast (TAF) and METAR
TAFs are issued by Aviation Meteorological Office, for Abu Dhabi (OMAA), Bateen (OMAD), Al Ain (OMAL), Dubai (OMDB), Al Maktoum (OMDW), Sharjah (OMSJ), Ras Al Khaimah (OMRK) and Fujairah (OMFJ) airports. These TAFs are issued every 6 hours and are valid for a 30 hour period. METARs (Aviation Routine Weather Reports) are updated hourly.
Show ICAO codes
Select OPMET type:        SEARCH   PRINT
Aviation Meteorology - National Center of Meteorology & Seismology (NCMS)
Telephone: +971 2 5757346 / 5053676
Email: metweb@adiamet.gov.ae
Website: www.avmet.ae
METAR OMAA 131200Z 34008KT 9999 SCT040 25/14 Q1015 NOSIG=
METAR OMAD 131200Z 33008KT 310V010 9999 FEW040 24/15 Q1015 NOSIG=
METAR OMAL 131200Z VRB04KT 9999 FEW046 26/07 Q1016 BECMG 30005KT=
METAR OMDB 131200Z 36010KT 290V040 CAVOK 25/09 Q1016 NOSIG=
METAR OMDW 131200Z 36012KT 8000 NSC 25/11 Q1016 TEMPO 3000 BLDU=
METAR OMFJ 131200Z 13011KT 8000 NSC 23/09 Q1017 A3003=
METAR OMSJ 131200Z 36010KT CAVOK 25/09 Q1016=
METAR OMRK 131200Z 35013KT 9999 FEW040 24/07 Q1016 A3001=
METAR OTBD 131200Z 36007KT CAVOK 24/11 Q1016 NOSIG=
METAR OTHH 131200Z 02008KT CAVOK 23/10 Q1016 NOSIG=
METAR OBBI 131200Z 31012KT CAVOK 20/11 Q1017 NOSIG=
METAR OEDF 131200Z 33006KT CAVOK 22/02 Q1017 NOSIG=
METAR OEDR 131200Z 30006KT CAVOK 23/07 Q1016 NOSIG=
METAR OEJN 131200Z 23007KT CAVOK 29/18 Q1015 NOSIG=
METAR OEMA 131200Z 13006KT CAVOK 27/M14 Q1018 NOSIG=
METAR OEPA 131200Z 31010KT CAVOK 19/02 Q1018 NOSIG=
METAR OERF 131200Z 20001KT CAVOK 21/M12 Q1018=
METAR OERK 131200Z 34006KT CAVOK 22/M13 Q1020 NOSIG=
METAR OERR 131200Z 17005KT CAVOK 22/00 Q1017 NOSIG=
METAR OERY 131200Z 33009KT CAVOK 22/M08 Q1019=
METAR OESH 131200Z 01006KT CAVOK 23/08 Q1019 NOSIG=
METAR OETB 131200Z 24003KT CAVOK 25/M09 Q1016 NOSIG=
METAR OETF 131200Z 03007KT CAVOK 27/M12 Q1020 NOSIG=
METAR OETR 131200Z 21004KT CAVOK 22/M06 Q1016=
METAR OEWD 131200Z 11006KT CAVOK 24/01 Q1018 NOSIG=
METAR OEWJ 131200Z 30010KT CAVOK 28/17 Q1014 NOSIG=
METAR OEYN 131200Z 21006KT 9999 FEW040 30/09 Q1013 NOSIG=
METAR OKBK 131200Z 34007KT CAVOK 21/M02 Q1017 NOSIG=
METAR OOMS 131150Z 06017KT CAVOK 24/10 Q1016 NOSIG=
METAR OOSA 131150Z 33014KT CAVOK 29/M14 Q1015 NOSIG=
METAR OYSN NIL=
METAR OYAA NIL=
 
Wednesday, December 13, 2017 (12:52 UTC)